Burnett, Indiana
Current Conditions -  °F | °C
As of 8:01 AM on Friday 24 Oct 2014 (Local Time) from KHUF Reporting Station
Overcast Overcast  
Wind Chill: 46°   Ceiling: 2900
Heat Index: 48°   Visibility: 8mi
Dew Point: 45°   Wind: 5mph
Humidity: 89%   Direction: 140°SE
Pressure: 30.1"   Gusts: NA
Location:  39.543°N, 87.3153°W
Report Text: KHUF 241201Z 14004KT 8SM OVC029 09/07 A3010 RMK AO2 T00890072
Loading
Personal Weather Stations






























Interactive Weather Map
Tropical Storm Tracking
New forecast layout! Learn more

10-Day Weather Forecast

Advertisements
Track Severe Weather on mobile